createdAt,value
2023-03-19T00:01:56.491Z,11.80
2023-03-19T00:04:59.240Z,11.59
2023-03-19T00:08:01.802Z,11.68
2023-03-19T00:11:08.250Z,11.65
2023-03-19T00:14:12.303Z,11.56
2023-03-19T00:17:14.911Z,11.52
2023-03-19T00:20:18.214Z,11.59
2023-03-19T00:23:20.866Z,11.60
2023-03-19T00:26:23.439Z,11.55
2023-03-19T00:29:27.443Z,11.53
2023-03-19T00:32:30.186Z,11.54
2023-03-19T00:35:33.434Z,11.52
2023-03-19T00:38:36.534Z,11.47
2023-03-19T00:41:39.118Z,11.50
2023-03-19T00:44:43.052Z,11.60
2023-03-19T00:47:45.623Z,11.67
2023-03-19T00:50:48.293Z,11.62
2023-03-19T00:53:51.688Z,11.61
2023-03-19T00:56:54.283Z,11.67
2023-03-19T00:59:58.251Z,11.61
2023-03-19T01:03:01.352Z,11.57
2023-03-19T01:06:04.800Z,11.51
2023-03-19T01:09:07.358Z,11.60
2023-03-19T01:12:10.722Z,11.60
2023-03-19T01:15:15.189Z,11.67
2023-03-19T01:18:18.152Z,11.46
2023-03-19T01:21:21.812Z,11.54
2023-03-19T01:24:24.795Z,11.57
2023-03-19T01:27:27.387Z,11.44
2023-03-19T01:30:31.827Z,11.48
2023-03-19T01:33:34.588Z,11.46
2023-03-19T01:36:37.171Z,11.54
2023-03-19T01:39:39.753Z,11.45
2023-03-19T01:42:58.008Z,11.40
2023-03-19T01:46:07.275Z,11.50
2023-03-19T01:49:12.600Z,11.39
2023-03-19T01:52:16.703Z,11.38
2023-03-19T01:55:20.002Z,11.36
2023-03-19T01:58:25.573Z,11.39
2023-03-19T02:01:34.644Z,11.28
2023-03-19T02:04:39.922Z,11.41
2023-03-19T02:07:45.984Z,11.45
2023-03-19T02:10:48.926Z,11.46
2023-03-19T02:13:51.860Z,11.50
2023-03-19T02:16:56.302Z,11.54
2023-03-19T02:20:05.515Z,11.53
2023-03-19T02:23:14.916Z,11.55
2023-03-19T02:26:20.769Z,11.60
2023-03-19T02:29:23.338Z,11.54
2023-03-19T02:32:27.004Z,11.55
2023-03-19T02:35:34.432Z,11.62
2023-03-19T02:38:39.123Z,11.59
2023-03-19T02:41:43.972Z,11.59
2023-03-19T02:44:47.668Z,11.61
2023-03-19T02:47:50.565Z,11.67
2023-03-19T02:50:53.217Z,11.56
2023-03-19T02:53:55.796Z,11.62
2023-03-19T02:56:59.743Z,11.65
2023-03-19T03:00:02.364Z,11.56
2023-03-19T03:03:07.565Z,11.63
2023-03-19T03:06:10.152Z,11.68
2023-03-19T03:09:14.187Z,11.60
2023-03-19T03:12:18.189Z,11.63
2023-03-19T03:15:21.545Z,11.59
2023-03-19T03:18:24.157Z,11.60
2023-03-19T03:21:27.035Z,11.64
2023-03-19T03:24:29.801Z,11.57
2023-03-19T03:27:33.797Z,11.64
2023-03-19T03:30:36.776Z,11.63
2023-03-19T03:33:39.359Z,11.55
2023-03-19T03:36:42.103Z,11.47
2023-03-19T03:39:44.719Z,11.47
2023-03-19T03:42:48.724Z,11.53
2023-03-19T03:45:51.380Z,11.45
2023-03-19T03:48:53.969Z,11.40
2023-03-19T03:51:57.235Z,11.39
2023-03-19T03:54:59.854Z,11.33
2023-03-19T03:58:03.796Z,11.38
2023-03-19T04:01:07.089Z,11.26
2023-03-19T04:04:09.880Z,11.26
2023-03-19T04:07:13.006Z,11.30
2023-03-19T04:10:15.938Z,11.15
2023-03-19T04:13:20.293Z,11.06
2023-03-19T04:16:23.136Z,11.17
2023-03-19T04:19:25.937Z,11.16
2023-03-19T04:22:28.790Z,11.12
2023-03-19T04:25:31.587Z,11.08
2023-03-19T04:28:36.264Z,11.03
2023-03-19T04:31:39.174Z,10.93
2023-03-19T04:34:41.895Z,10.87
2023-03-19T04:37:48.407Z,10.77
2023-03-19T04:40:51.828Z,10.75
2023-03-19T04:43:55.760Z,10.78
2023-03-19T04:46:58.540Z,10.77
2023-03-19T04:50:01.136Z,10.80
2023-03-19T04:53:03.926Z,10.84
2023-03-19T04:56:07.933Z,10.80
2023-03-19T04:59:11.890Z,10.76
2023-03-19T05:02:14.489Z,10.61
2023-03-19T05:05:17.130Z,10.56
2023-03-19T05:08:19.709Z,10.70
2023-03-19T05:11:22.308Z,10.61
2023-03-19T05:14:26.350Z,10.58
2023-03-19T05:17:28.947Z,10.65
2023-03-19T05:20:31.769Z,10.66
2023-03-19T05:23:34.504Z,10.75
2023-03-19T05:26:37.517Z,10.67
2023-03-19T05:29:42.436Z,10.73
2023-03-19T05:32:46.616Z,10.73
2023-03-19T05:35:49.477Z,10.78
2023-03-19T05:38:52.090Z,10.70
2023-03-19T05:41:54.691Z,10.85
2023-03-19T05:44:58.918Z,10.89
2023-03-19T05:48:01.635Z,10.84
2023-03-19T05:51:04.710Z,10.83
2023-03-19T05:54:07.801Z,10.81
2023-03-19T05:57:10.609Z,10.81
2023-03-19T06:00:15.997Z,10.82
2023-03-19T06:03:18.781Z,10.89
2023-03-19T06:06:21.379Z,10.89
2023-03-19T06:09:23.968Z,10.90
2023-03-19T06:12:26.992Z,10.84
2023-03-19T06:15:31.428Z,11.00
2023-03-19T06:18:34.254Z,11.17
2023-03-19T06:21:36.909Z,11.24
2023-03-19T06:24:39.497Z,11.35
2023-03-19T06:27:42.075Z,11.30
2023-03-19T06:30:46.047Z,11.41
2023-03-19T06:33:49.076Z,11.53
2023-03-19T06:36:53.672Z,11.59
2023-03-19T06:39:56.260Z,11.56
2023-03-19T06:42:58.829Z,11.55
2023-03-19T06:46:02.780Z,11.95
2023-03-19T06:49:05.500Z,11.90
2023-03-19T06:52:08.442Z,11.76
2023-03-19T06:55:12.529Z,11.79
2023-03-19T06:58:15.123Z,11.77
2023-03-19T07:01:19.173Z,12.10
2023-03-19T07:04:21.899Z,11.85
2023-03-19T07:07:24.570Z,12.20
2023-03-19T07:10:27.191Z,12.33
2023-03-19T07:13:29.761Z,12.38
2023-03-19T07:16:33.953Z,12.34
2023-03-19T07:19:36.576Z,12.45
2023-03-19T07:22:39.195Z,12.52
2023-03-19T07:25:42.242Z,12.58
2023-03-19T07:28:44.873Z,12.63
2023-03-19T07:31:48.853Z,12.44
2023-03-19T07:34:51.554Z,12.70
2023-03-19T07:37:54.145Z,12.87
2023-03-19T07:41:02.497Z,12.86
2023-03-19T07:44:06.262Z,13.06
2023-03-19T07:47:22.433Z,13.21
2023-03-19T07:50:28.935Z,13.34
2023-03-19T07:53:31.529Z,13.16
2023-03-19T07:56:34.192Z,13.18
2023-03-19T07:59:36.763Z,13.42
2023-03-19T08:02:42.598Z,13.02
2023-03-19T08:05:45.216Z,13.23
2023-03-19T08:08:47.789Z,13.39
2023-03-19T08:11:50.459Z,13.52
2023-03-19T08:14:53.095Z,13.55
2023-03-19T08:18:00.363Z,13.35
2023-03-19T08:21:03.084Z,13.56
2023-03-19T08:24:06.018Z,13.71
2023-03-19T08:27:08.784Z,13.81
2023-03-19T08:30:13.358Z,14.01
2023-03-19T08:33:17.711Z,14.00
2023-03-19T08:36:20.288Z,14.08
2023-03-19T08:39:22.850Z,13.96
2023-03-19T08:42:25.793Z,13.55
2023-03-19T08:45:28.397Z,13.80
2023-03-19T08:48:32.570Z,13.71
2023-03-19T08:51:35.285Z,13.83
2023-03-19T08:54:38.034Z,13.49
2023-03-19T08:57:40.832Z,13.60
2023-03-19T09:00:43.405Z,13.79
2023-03-19T09:03:47.405Z,13.80
2023-03-19T09:06:51.544Z,14.20
2023-03-19T09:09:54.164Z,14.34
2023-03-19T09:12:56.765Z,14.60
2023-03-19T09:15:59.395Z,14.98
2023-03-19T09:19:03.399Z,14.81
2023-03-19T09:22:06.066Z,15.31
2023-03-19T09:25:09.572Z,15.73
2023-03-19T09:28:12.362Z,15.84
2023-03-19T09:31:15.222Z,15.98
2023-03-19T09:34:19.184Z,16.39
2023-03-19T09:37:21.764Z,16.05
2023-03-19T09:40:28.771Z,16.04
2023-03-19T09:43:49.743Z,16.29
2023-03-19T09:46:58.520Z,16.21
2023-03-19T09:50:06.853Z,16.41
2023-03-19T09:53:19.029Z,16.84
2023-03-19T09:56:21.754Z,17.65
2023-03-19T09:59:26.243Z,18.18
2023-03-19T10:02:43.632Z,18.65
2023-03-19T10:05:55.299Z,18.28
2023-03-19T10:09:13.317Z,18.76
2023-03-19T10:12:27.614Z,19.21
2023-03-19T10:15:32.099Z,18.95
2023-03-19T10:18:39.324Z,19.41
2023-03-19T10:21:46.948Z,19.52
2023-03-19T10:24:51.462Z,19.88
2023-03-19T10:28:00.277Z,20.20
2023-03-19T10:31:14.673Z,20.46
2023-03-19T10:34:31.139Z,20.64
2023-03-19T10:37:36.613Z,20.54
2023-03-19T10:40:49.800Z,20.80
2023-03-19T10:43:55.571Z,21.83
2023-03-19T10:47:11.758Z,22.12
2023-03-19T10:50:17.393Z,23.15
2023-03-19T10:53:31.824Z,23.20
2023-03-19T10:56:35.980Z,23.23
2023-03-19T10:59:39.250Z,23.40
2023-03-19T11:02:49.530Z,23.93
2023-03-19T11:06:05.487Z,23.09
2023-03-19T11:09:20.448Z,22.65
2023-03-19T11:12:27.203Z,23.38
2023-03-19T11:15:36.053Z,22.45
2023-03-19T11:18:40.422Z,22.94
2023-03-19T11:21:43.078Z,23.50
2023-03-19T11:24:54.253Z,23.38
2023-03-19T11:28:02.000Z,24.19
2023-03-19T11:31:13.255Z,22.53
2023-03-19T11:34:30.437Z,22.04
2023-03-19T11:37:50.201Z,22.64
2023-03-19T11:41:03.322Z,23.22
2023-03-19T11:44:08.155Z,23.38
2023-03-19T11:47:26.719Z,23.33
2023-03-19T11:50:36.923Z,23.13
2023-03-19T11:53:51.554Z,24.20
2023-03-19T11:57:00.978Z,23.76
2023-03-19T12:00:23.751Z,22.70
2023-03-19T12:03:57.187Z,21.87
2023-03-19T12:07:08.496Z,20.41
2023-03-19T12:10:28.685Z,20.57
2023-03-19T12:13:43.440Z,20.43
2023-03-19T12:16:56.950Z,20.12
2023-03-19T12:20:28.079Z,19.28
2023-03-19T12:23:47.572Z,18.95
2023-03-19T12:26:59.079Z,18.56
2023-03-19T12:30:10.234Z,17.98
2023-03-19T12:33:24.437Z,16.96
2023-03-19T12:36:33.267Z,15.67
2023-03-19T12:39:39.827Z,15.43
2023-03-19T12:42:43.533Z,15.59
2023-03-19T12:45:51.776Z,15.68
2023-03-19T12:48:59.833Z,15.67
2023-03-19T12:52:09.494Z,16.00
2023-03-19T12:55:19.538Z,16.10
2023-03-19T12:58:31.257Z,16.02
2023-03-19T13:01:40.315Z,16.38
2023-03-19T13:04:50.616Z,16.48
2023-03-19T13:07:59.065Z,16.62
2023-03-19T13:11:04.876Z,16.60
2023-03-19T13:14:14.155Z,16.55
2023-03-19T13:17:27.227Z,16.44
2023-03-19T13:20:41.414Z,16.47
2023-03-19T13:23:45.597Z,16.59
2023-03-19T13:26:49.519Z,16.72
2023-03-19T13:30:01.992Z,16.85
2023-03-19T13:33:07.218Z,16.83
2023-03-19T13:36:15.506Z,16.76
2023-03-19T13:39:21.397Z,16.77
2023-03-19T13:42:38.279Z,16.67
2023-03-19T13:45:41.128Z,16.66
2023-03-19T13:48:52.764Z,16.69
2023-03-19T13:51:59.646Z,16.76
2023-03-19T13:55:32.839Z,16.91
2023-03-19T13:58:51.957Z,16.93
2023-03-19T14:01:55.234Z,16.82
2023-03-19T14:05:02.925Z,16.49
2023-03-19T14:08:18.354Z,16.49
2023-03-19T14:11:25.545Z,16.33
2023-03-19T14:14:28.195Z,16.13
2023-03-19T14:17:34.362Z,16.02
2023-03-19T14:20:48.367Z,15.69
2023-03-19T14:23:57.594Z,15.65
2023-03-19T14:27:03.672Z,15.29
2023-03-19T14:30:15.643Z,15.23
2023-03-19T14:33:21.085Z,15.28
2023-03-19T14:36:25.909Z,15.35
2023-03-19T14:39:31.280Z,15.30
2023-03-19T14:42:40.993Z,15.55
2023-03-19T14:45:50.404Z,15.63
2023-03-19T14:49:18.828Z,15.54
2023-03-19T14:52:24.344Z,15.45
2023-03-19T14:55:35.133Z,15.17
2023-03-19T14:58:37.881Z,15.19
2023-03-19T15:01:42.279Z,15.37
2023-03-19T15:04:46.377Z,15.41
2023-03-19T15:07:54.221Z,15.46
2023-03-19T15:11:08.691Z,15.37
2023-03-19T15:14:26.228Z,15.38
2023-03-19T15:17:30.790Z,15.63
2023-03-19T15:20:38.633Z,15.67
2023-03-19T15:23:46.199Z,15.35
2023-03-19T15:26:48.970Z,15.24
2023-03-19T15:29:52.271Z,15.08
2023-03-19T15:33:10.492Z,14.93
2023-03-19T15:36:20.488Z,14.68
2023-03-19T15:39:27.633Z,14.74
2023-03-19T15:42:31.188Z,14.83
2023-03-19T15:45:35.531Z,14.74
2023-03-19T15:48:44.875Z,14.78
2023-03-19T15:51:51.556Z,14.97
2023-03-19T15:54:56.502Z,15.05
2023-03-19T15:58:06.380Z,14.60
2023-03-19T16:01:11.137Z,14.96
2023-03-19T16:04:20.762Z,14.88
2023-03-19T16:07:34.064Z,15.04
2023-03-19T16:10:42.881Z,15.18
2023-03-19T16:13:56.924Z,15.36
2023-03-19T16:17:04.897Z,15.06
2023-03-19T16:20:14.743Z,15.13
2023-03-19T16:23:19.392Z,15.09
2023-03-19T16:26:26.105Z,15.18
2023-03-19T16:29:30.709Z,15.35
2023-03-19T16:32:33.643Z,15.29
2023-03-19T16:35:37.826Z,15.19
2023-03-19T16:38:45.405Z,15.28
2023-03-19T16:42:23.631Z,15.25
2023-03-19T16:45:28.046Z,15.13
2023-03-19T16:48:30.617Z,14.99
2023-03-19T16:51:33.871Z,14.97
2023-03-19T16:54:36.667Z,14.98
2023-03-19T16:57:40.619Z,14.69
2023-03-19T17:00:44.378Z,14.60
2023-03-19T17:03:48.117Z,14.83
2023-03-19T17:06:51.070Z,14.74
2023-03-19T17:09:53.700Z,14.62
2023-03-19T17:12:58.219Z,14.68
2023-03-19T17:16:02.741Z,14.57
2023-03-19T17:19:11.080Z,14.43
2023-03-19T17:22:14.504Z,14.49
2023-03-19T17:25:19.139Z,14.36
2023-03-19T17:28:23.224Z,14.28
2023-03-19T17:31:27.956Z,14.23
2023-03-19T17:34:31.859Z,14.09
2023-03-19T17:37:35.801Z,14.01
2023-03-19T17:40:38.523Z,13.94
2023-03-19T17:43:42.640Z,13.85
2023-03-19T17:46:48.436Z,13.80
2023-03-19T17:49:51.078Z,13.66
2023-03-19T17:52:53.716Z,13.54
2023-03-19T17:55:56.344Z,13.41
2023-03-19T17:59:00.288Z,13.38
2023-03-19T18:02:02.889Z,13.27
2023-03-19T18:05:07.328Z,13.20
2023-03-19T18:08:15.648Z,13.20
2023-03-19T18:11:18.736Z,13.09
2023-03-19T18:14:22.684Z,12.97
2023-03-19T18:17:25.288Z,12.92
2023-03-19T18:20:30.937Z,12.85
2023-03-19T18:23:33.535Z,12.79
2023-03-19T18:26:36.095Z,12.70
2023-03-19T18:29:40.070Z,12.62
2023-03-19T18:32:45.561Z,12.52
2023-03-19T18:35:48.346Z,12.55
2023-03-19T18:38:51.062Z,12.41
2023-03-19T18:41:53.705Z,12.38
2023-03-19T18:44:57.682Z,12.28
2023-03-19T18:48:00.581Z,12.26
2023-03-19T18:51:03.360Z,12.28
2023-03-19T18:54:06.119Z,12.21
2023-03-19T18:57:12.480Z,12.21
2023-03-19T19:00:19.835Z,12.09
2023-03-19T19:03:29.255Z,12.06
2023-03-19T19:06:46.787Z,12.00
2023-03-19T19:09:50.214Z,11.78
2023-03-19T19:12:56.014Z,11.83
2023-03-19T19:16:00.312Z,11.81
2023-03-19T19:19:03.224Z,11.86
2023-03-19T19:22:06.493Z,11.84
2023-03-19T19:25:09.518Z,11.77
2023-03-19T19:28:19.233Z,11.75
2023-03-19T19:31:26.710Z,11.66
2023-03-19T19:34:29.341Z,11.61
2023-03-19T19:37:32.008Z,11.56
2023-03-19T19:40:34.822Z,11.58
2023-03-19T19:43:38.187Z,11.54
2023-03-19T19:46:42.155Z,11.55
2023-03-19T19:49:45.514Z,11.55
2023-03-19T19:52:48.631Z,11.48
2023-03-19T19:55:51.235Z,11.47
2023-03-19T19:58:56.870Z,11.44
2023-03-19T20:02:00.928Z,11.39
2023-03-19T20:05:04.209Z,11.46
2023-03-19T20:08:07.189Z,11.48
2023-03-19T20:11:16.914Z,11.50
2023-03-19T20:14:19.517Z,11.49
2023-03-19T20:17:23.850Z,11.54
2023-03-19T20:20:28.114Z,11.60
2023-03-19T20:23:30.716Z,11.50
2023-03-19T20:26:34.298Z,11.45
2023-03-19T20:29:38.664Z,11.39
2023-03-19T20:32:42.736Z,11.37
2023-03-19T20:35:46.162Z,11.33
2023-03-19T20:38:48.733Z,11.29
2023-03-19T20:41:51.597Z,11.21
2023-03-19T20:44:57.971Z,11.29
2023-03-19T20:48:02.266Z,11.22
2023-03-19T20:51:05.212Z,11.11
2023-03-19T20:54:07.830Z,10.99
2023-03-19T20:57:14.605Z,10.86
2023-03-19T21:00:24.649Z,10.90
2023-03-19T21:03:30.759Z,10.92
2023-03-19T21:06:49.862Z,10.86
2023-03-19T21:09:55.010Z,10.85
2023-03-19T21:12:58.120Z,10.89
2023-03-19T21:16:01.906Z,10.93
2023-03-19T21:19:06.494Z,10.88
2023-03-19T21:22:14.949Z,11.02
2023-03-19T21:25:21.395Z,11.13
2023-03-19T21:28:27.227Z,11.16
2023-03-19T21:31:29.907Z,11.06
2023-03-19T21:34:33.896Z,11.06
2023-03-19T21:37:36.498Z,11.01
2023-03-19T21:40:39.220Z,11.05
2023-03-19T21:43:44.907Z,11.06
2023-03-19T21:46:49.283Z,11.01
2023-03-19T21:49:53.331Z,10.76
2023-03-19T21:53:00.744Z,10.86
2023-03-19T21:56:04.040Z,10.74
2023-03-19T21:59:13.840Z,10.75
2023-03-19T22:02:41.616Z,10.84
2023-03-19T22:05:46.661Z,10.49
2023-03-19T22:08:49.867Z,10.23
2023-03-19T22:11:52.500Z,10.25
2023-03-19T22:14:55.536Z,10.37
2023-03-19T22:17:59.792Z,10.27
2023-03-19T22:21:03.732Z,10.38
2023-03-19T22:24:06.838Z,10.52
2023-03-19T22:27:16.476Z,10.20
2023-03-19T22:30:28.052Z,10.44
2023-03-19T22:33:30.748Z,10.56
2023-03-19T22:36:34.693Z,10.56
2023-03-19T22:39:37.272Z,10.58
2023-03-19T22:42:40.550Z,10.63
2023-03-19T22:45:43.379Z,10.73
2023-03-19T22:48:49.965Z,10.65
2023-03-19T22:51:53.925Z,10.72
2023-03-19T22:54:56.499Z,10.66
2023-03-19T22:57:59.076Z,10.67
2023-03-19T23:01:01.770Z,10.76
2023-03-19T23:04:17.682Z,10.69
2023-03-19T23:07:21.611Z,10.70
2023-03-19T23:10:26.707Z,10.74
2023-03-19T23:13:29.383Z,10.67
2023-03-19T23:16:32.116Z,10.64
2023-03-19T23:19:36.280Z,10.59
2023-03-19T23:22:40.299Z,10.56
2023-03-19T23:25:43.939Z,10.50
2023-03-19T23:28:46.578Z,10.53
2023-03-19T23:31:49.557Z,10.71
2023-03-19T23:35:00.640Z,10.73
2023-03-19T23:38:05.391Z,10.68
2023-03-19T23:41:08.320Z,10.45
2023-03-19T23:44:14.076Z,10.62
2023-03-19T23:47:16.896Z,10.57
2023-03-19T23:50:19.489Z,10.68
2023-03-19T23:53:27.117Z,10.75
2023-03-19T23:56:29.768Z,10.56
2023-03-19T23:59:35.604Z,10.56
